Latest Coastal Weather Observations for Parndana

IDS60701

Issued at 2:11 am CDT Friday 19 October 2018 (issued every 10 minutes, with the page automatically refreshed every 10 minutes)

About coastal observations | Map of coastal stations | Coastal observations for SA | Marine services | Other Formats
Station Details ID: 022843 Name: PARNDANA CFS AWS Lat: -35.79 Lon: 137.25 Height: 165.0 m
Data from the previous 72 hours. | See also: Recent months at Parndana
Date/Time
CDT
Wind Sea
Height
m
Swell Vis
km
Cloud Weather Temp
°C
Press
hPa
Rain since
9am
mm
Dir  Spd
kts
Gust
kts
Height
m
Period
s
Dir
19/02:00am NE 5 8 - - - - - - - 11.7 - 0.0
19/01:30am NNE 6 10 - - - - - - - 11.8 - 0.0
19/01:00am NNE 6 9 - - - - - - - 11.6 - 0.0
19/12:30am NE 7 8 - - - - - - - 11.4 - 0.0
19/12:00am NE 6 8 - - - - - - - 11.4 - 0.0
 
Date/Time
CDT
Wind Sea
Height
m
Swell Vis
km
Cloud Weather Temp
°C
Press
hPa
Rain since
9am
mm
Dir  Spd
kts
Gust
kts
Height
m
Period
s
Dir
18/11:30pm NNE 5 7 - - - - - - - 11.2 - 0.0
18/11:00pm NE 6 8 - - - - - - - 11.5 - 0.0
18/10:30pm NE 6 7 - - - - - - - 11.1 - 0.0
18/10:00pm NE 7 9 - - - - - - - 10.7 - 0.0
18/09:30pm NE 7 8 - - - - - - - 10.0 - 0.0
18/09:00pm NNE 3 4 - - - - - - - 10.1 - 0.0
18/08:30pm NE 5 6 - - - - - - - 10.3 - 0.0
18/08:00pm NNE 4 5 - - - - - - - 11.3 - 0.0
18/07:30pm NNE 5 6 - - - - - - - 12.9 - 0.0
18/07:00pm NNE 3 4 - - - - - - - 15.1 - 0.0
18/06:30pm NNW 3 5 - - - - - - - 15.4 - 0.0
18/06:00pm NW 5 7 - - - - - - - 16.2 - 0.0
18/05:30pm N 6 8 - - - - - - - 16.0 - 0.0
18/05:00pm N 7 9 - - - - - - - 16.6 - 0.0
18/04:30pm N 7 10 - - - - - - - 16.4 - 0.0
18/04:00pm N 8 11 - - - - - - - 16.7 - 0.0
18/03:30pm N 7 11 - - - - - - - 16.8 - 0.0
18/03:00pm NNW 7 10 - - - - - - - 16.8 - 0.0
18/02:30pm NNW 7 12 - - - - - - - 16.9 - 0.0
18/02:00pm N 8 11 - - - - - - - 16.0 - 0.0
18/01:30pm NNW 7 11 - - - - - - - 15.9 - 0.0
18/01:00pm N 5 8 - - - - - - - 15.8 - 0.0
18/12:30pm N 6 9 - - - - - - - 14.5 - 0.0
18/12:00pm N 4 8 - - - - - - - 15.3 - 0.0
18/11:30am NW 4 8 - - - - - - - 14.3 - 0.0
18/11:00am N 3 6 - - - - - - - 13.4 - 0.0
18/10:30am WNW 4 6 - - - - - - - 12.0 - 0.0
18/10:00am NW 3 5 - - - - - - - 11.8 - 0.0
18/09:30am WNW 4 6 - - - - - - - 11.3 - 0.0
18/09:00am SW 4 8 - - - - - - - 10.3 - 0.0
18/08:30am WNW 5 7 - - - - - - - 9.7 - 0.0
18/08:00am SW 5 9 - - - - - - - 9.6 - 0.0
18/07:30am SW 4 7 - - - - - - - 9.3 - 0.0
18/07:00am WSW 4 8 - - - - - - - 9.2 - 0.0
18/06:30am WSW 5 8 - - - - - - - 9.1 - 0.0
18/06:00am WSW 4 7 - - - - - - - 9.2 - 0.0
18/05:30am WSW 5 7 - - - - - - - 9.2 - 0.0
18/05:00am SW 5 7 - - - - - - - 9.3 - 0.0
18/04:30am SW 5 9 - - - - - - - 9.4 - 0.0
18/04:00am SW 7 11 - - - - - - - 9.3 - 0.0
18/03:30am SW 6 9 - - - - - - - 9.5 - 0.0
18/03:00am SW 8 13 - - - - - - - 9.6 - 0.0
18/02:30am SW 9 13 - - - - - - - 9.6 - 0.0
18/02:00am SW 8 12 - - - - - - - 9.7 - 0.0
18/01:30am SW 8 13 - - - - - - - 9.7 - 0.0
18/01:00am SW 7 12 - - - - - - - 9.9 - 0.0
18/12:30am SW 11 15 - - - - - - - 9.9 - 0.0
18/12:00am SW 9 12 - - - - - - - 10.0 - 0.0
 
Date/Time
CDT
Wind Sea
Height
m
Swell Vis
km
Cloud Weather Temp
°C
Press
hPa
Rain since
9am
mm
Dir  Spd
kts
Gust
kts
Height
m
Period
s
Dir
17/11:30pm SW 8 11 - - - - - - - 10.2 - 0.0
17/11:00pm SW 10 16 - - - - - - - 10.2 - 0.0
17/10:30pm SW 8 13 - - - - - - - 10.2 - 0.0
17/10:00pm WSW 7 9 - - - - - - - 10.2 - 0.0
17/09:30pm SW 7 9 - - - - - - - 10.4 - 0.0
17/09:00pm SW 8 11 - - - - - - - 10.4 - 0.0
17/08:30pm SW 9 15 - - - - - - - 10.4 - 0.0
17/08:00pm SW 8 10 - - - - - - - 10.4 - 0.0
17/07:30pm SW 10 14 - - - - - - - 10.6 - 0.0
17/07:00pm SW 8 13 - - - - - - - 11.1 - 0.0
17/06:30pm SW 11 15 - - - - - - - 11.4 - 0.0
17/06:00pm SW 11 17 - - - - - - - 11.8 - 0.0
17/05:30pm WSW 12 17 - - - - - - - 12.2 - 0.0
17/05:00pm WSW 12 16 - - - - - - - 12.1 - 0.0
17/04:30pm WSW 12 15 - - - - - - - 12.2 - 0.0
17/04:00pm SW 12 18 - - - - - - - 12.1 - 0.0
17/03:30pm SW 11 16 - - - - - - - 12.4 - 0.0
17/03:00pm SW 11 17 - - - - - - - 12.4 - 0.0
17/02:30pm SW 13 16 - - - - - - - 12.6 - 0.0
17/02:00pm SW 13 20 - - - - - - - 12.6 - 0.0
17/01:30pm WSW 13 17 - - - - - - - 12.4 - 0.0
17/01:00pm SW 15 20 - - - - - - - 12.6 - 0.0
17/12:30pm SW 15 18 - - - - - - - 11.8 - 0.0
17/12:00pm SW 12 16 - - - - - - - 12.1 - 0.0
17/11:30am SW 12 16 - - - - - - - 11.5 - 0.0
17/11:00am WSW 13 17 - - - - - - - 11.4 - 0.0
17/10:30am SW 14 20 - - - - - - - 11.4 - 0.0
17/10:00am SW 15 21 - - - - - - - 11.6 - 0.0
17/09:30am SW 14 20 - - - - - - - 11.1 - 0.0
17/09:00am SW 13 18 - - - - - - - 10.8 - 1.8
17/08:30am SW 13 16 - - - - - - - 10.7 - 1.8
17/08:00am WSW 11 18 - - - - - - - 10.3 - 1.8
17/07:30am SW 12 16 - - - - - - - 10.2 - 1.8
17/07:00am SW 13 18 - - - - - - - 10.2 - 1.8
17/06:30am SW 14 20 - - - - - - - 10.2 - 1.6
17/06:00am SW 13 18 - - - - - - - 10.3 - 1.6
17/05:30am SW 12 16 - - - - - - - 10.4 - 1.6
17/05:00am WSW 12 16 - - - - - - - 10.6 - 1.6
17/04:30am SW 11 15 - - - - - - - 10.6 - 1.6
17/04:00am SW 12 17 - - - - - - - 10.6 - 1.6
17/03:30am WSW 12 15 - - - - - - - 10.6 - 1.6
17/03:00am WSW 10 14 - - - - - - Recent precip. 10.7 - 1.6
17/02:30am SW 14 18 - - - - - - - 10.6 - 1.4
17/02:00am SW 10 13 - - - - - - - 10.8 - 1.4
17/01:30am SW 10 16 - - - - - - - 10.8 - 1.4
17/01:00am SW 10 14 - - - - - - - 10.9 - 1.2
17/12:30am SW 9 11 - - - - - - - 10.9 - 1.0
17/12:00am SW 11 13 - - - - - - - 10.9 - 1.0
 
Date/Time
CDT
Wind Sea
Height
m
Swell Vis
km
Cloud Weather Temp
°C
Press
hPa
Rain since
9am
mm
Dir  Spd
kts
Gust
kts
Height
m
Period
s
Dir
16/11:30pm SW 12 16 - - - - - - - 10.9 - 1.0
16/11:00pm SW 12 16 - - - - - - - 10.9 - 1.0
16/10:30pm SW 13 19 - - - - - - - 11.0 - 1.0
16/10:00pm SW 13 18 - - - - - - - 11.0 - 0.8
16/09:30pm SW 13 17 - - - - - - - 11.0 - 0.8
16/09:00pm SW 12 19 - - - - - - Rain 11.0 - 0.8
16/08:30pm WSW 13 19 - - - - - - - 11.1 - 0.6
16/08:00pm WSW 12 16 - - - - - - - 11.2 - 0.6
16/07:30pm WSW 11 16 - - - - - - - 11.3 - 0.4
16/07:00pm SW 15 23 - - - - - - - 11.3 - 0.4
16/06:30pm WSW 13 19 - - - - - - - 11.5 - 0.4
16/06:00pm SW 14 19 - - - - - - - 11.8 - 0.4
16/05:30pm WSW 14 20 - - - - - - - 12.1 - 0.4
16/05:00pm SW 15 22 - - - - - - - 12.7 - 0.4
16/04:30pm WSW 14 21 - - - - - - - 12.6 - 0.4
16/04:00pm SW 18 26 - - - - - - - 12.8 - 0.4
16/03:31pm SW 19 30 - - - - - - - 13.4 - 0.2
16/03:30pm SW 20 30 - - - - - - - 13.5 - 0.2
16/03:00pm WSW 20 29 - - - - - - - 12.9 - 0.2
16/02:38pm WSW 17 28 - - - - - - - 13.2 - 0.2
16/02:30pm WSW 18 25 - - - - - - - 13.5 - 0.2
16/02:00pm WSW 21 32 - - - - - - - 14.6 - 0.2
16/01:58pm WSW 21 32 - - - - - - - 14.1 - 0.2
16/01:30pm WSW 20 28 - - - - - - - 14.0 - 0.2
16/01:07pm WSW 19 29 - - - - - - - 14.2 - 0.2
16/01:00pm WSW 22 31 - - - - - - - 14.3 - 0.2
16/12:30pm WSW 23 34 - - - - - - - 13.8 - 0.2
16/12:20pm WSW 23 33 - - - - - - - 14.5 - 0.2
16/12:00pm WSW 21 29 - - - - - - - 13.8 - 0.2
16/11:30am WSW 19 27 - - - - - - - 13.7 - 0.2
16/11:00am WSW 20 27 - - - - - - - 13.7 - 0.2
16/10:30am WSW 18 25 - - - - - - - 13.2 - 0.2
16/10:00am W 17 23 - - - - - - - 12.5 - 0.2
16/09:37am W 15 25 - - - - - - - 12.2 - 0.2
16/09:30am W 14 19 - - - - - - - 12.4 - 0.2
16/09:00am W 17 22 - - - - - - - 12.2 - 1.6
16/08:30am W 16 25 - - - - - - - 12.1 - 1.6
16/08:00am W 17 25 - - - - - - - 12.1 - 1.6
16/07:30am W 15 26 - - - - - - - 12.0 - 1.6
16/07:24am W 16 26 - - - - - - - 12.0 - 1.6
16/07:00am W 17 22 - - - - - - - 11.9 - 1.6
16/06:30am W 14 19 - - - - - - - 11.9 - 1.6
16/06:00am W 12 17 - - - - - - Recent precip. 12.0 - 1.6
16/05:30am W 15 21 - - - - - - - 12.1 - 1.6
16/05:00am W 15 23 - - - - - - - 12.1 - 1.4
16/04:30am W 14 20 - - - - - - - 12.1 - 1.4
16/04:00am W 14 20 - - - - - - - 12.1 - 1.4
16/03:30am WNW 11 15 - - - - - - - 12.2 - 1.4
16/03:00am WNW 12 17 - - - - - - - 12.2 - 1.4
16/02:30am WNW 10 16 - - - - - - - 12.4 - 1.4

Other Formats:

Comma delimited format used in spreadsheet applications
http://www.bom.gov.au/fwo/IDS60701/IDS60701.94807.axf

JavaScript Object Notation format (JSON) in row-major order
http://www.bom.gov.au/fwo/IDS60701/IDS60701.94807.json